createdAt,value
2023-03-28T00:13:19.668Z,23.6854
2023-03-28T00:28:21.305Z,23.8154
2023-03-28T00:43:22.952Z,23.8476
2023-03-28T00:58:24.583Z,24.1565
2023-03-28T01:13:26.210Z,24.2636
2023-03-28T01:28:27.956Z,24.1206
2023-03-28T01:43:29.605Z,23.8377
2023-03-28T01:58:31.245Z,23.8476
2023-03-28T02:13:32.896Z,23.9646
2023-03-28T02:28:34.556Z,23.8055
2023-03-28T02:43:36.178Z,23.3635
2023-03-28T02:58:37.847Z,23.5257
2023-03-28T03:13:39.496Z,23.1524
2023-03-28T03:28:41.139Z,23.6755
2023-03-28T03:43:43.866Z,23.6526
2023-03-28T03:58:46.374Z,22.8955
2023-03-28T04:13:48.051Z,23.5096
2023-03-28T04:28:49.737Z,23.1357
2023-03-28T04:43:51.439Z,22.7946
2023-03-28T04:58:53.108Z,23.1846
2023-03-28T05:13:54.743Z,23.2595
2023-03-28T05:28:56.375Z,23.5065
2023-03-28T05:43:58.051Z,23.4415
2023-03-28T05:58:59.729Z,22.9735
2023-03-28T06:14:01.380Z,22.8076
2023-03-28T06:29:03.016Z,22.4176
2023-03-28T06:44:04.664Z,23.4836
2023-03-28T06:59:06.339Z,23.1097
2023-03-28T07:14:07.994Z,22.4826
2023-03-28T07:29:09.655Z,23.3406
2023-03-28T07:44:11.291Z,23.1555
2023-03-28T07:59:12.927Z,22.4795
2023-03-28T08:14:14.566Z,22.0276
2023-03-28T08:29:16.171Z,23.3437
2023-03-28T08:44:17.814Z,22.9568
2023-03-28T08:59:19.485Z,22.3396
2023-03-28T09:14:21.137Z,22.9735
2023-03-28T09:29:22.829Z,22.8887
2023-03-28T09:44:24.565Z,22.2455
2023-03-28T09:59:27.819Z,22.9927
2023-03-28T10:14:30.262Z,22.4956
2023-03-28T10:29:32.046Z,22.4015
2023-03-28T10:44:33.713Z,22.9345
2023-03-28T10:59:35.358Z,22.1576
2023-03-28T11:14:37.090Z,22.9896
2023-03-28T11:29:43.589Z,22.7327
2023-03-28T11:44:45.901Z,23.1258
2023-03-28T11:59:47.768Z,22.5185
2023-03-28T12:14:49.440Z,22.6027
2023-03-28T12:29:51.102Z,22.3266
2023-03-28T12:44:52.749Z,22.9048
2023-03-28T12:59:54.410Z,23.0187
2023-03-28T13:14:56.066Z,23.0546
2023-03-28T13:29:57.708Z,22.3947
2023-03-28T13:44:59.361Z,22.5507
2023-03-28T14:00:01.094Z,22.7488
2023-03-28T14:15:02.780Z,22.9698
2023-03-28T14:30:04.499Z,22.7816
2023-03-28T14:45:06.157Z,22.3266
2023-03-28T15:00:07.803Z,23.2558
2023-03-28T15:15:09.449Z,22.0375
2023-03-28T15:30:11.112Z,22.6906
2023-03-28T15:45:12.762Z,23.2038
2023-03-28T16:00:14.437Z,22.5965
2023-03-28T16:15:16.115Z,22.6095
2023-03-28T16:30:17.797Z,23.1456
2023-03-28T16:45:19.449Z,22.8497
2023-03-28T17:00:21.097Z,23.0707
2023-03-28T17:15:22.754Z,23.0286
2023-03-28T17:30:24.391Z,23.1097
2023-03-28T17:45:26.148Z,22.7816
2023-03-28T18:00:30.176Z,23.1425
2023-03-28T18:15:33.014Z,23.2267
2023-03-28T18:30:34.664Z,23.1648
2023-03-28T18:45:36.387Z,22.9475
2023-03-28T19:00:38.091Z,23.4836
2023-03-28T19:15:39.747Z,23.6687
2023-03-28T19:30:41.557Z,23.5226
2023-03-28T19:45:43.198Z,24.0166
2023-03-28T20:00:44.846Z,23.7696
2023-03-28T20:15:46.585Z,24.1045
2023-03-28T20:30:48.294Z,23.5294
2023-03-28T20:45:49.951Z,23.6105
2023-03-28T21:00:51.649Z,23.4254
2023-03-28T21:15:53.322Z,23.8705
2023-03-28T21:30:54.941Z,24.2834
2023-03-28T21:45:56.648Z,24.8164
2023-03-28T22:00:58.476Z,24.6765
2023-03-28T22:31:02.124Z,25.2392
2023-03-28T22:46:04.248Z,25.2002
2023-03-28T23:01:05.980Z,25.6453
2023-03-28T23:16:07.821Z,25.4181
2023-03-28T23:31:09.543Z,25.7264
2023-03-28T23:46:11.209Z,25.1451
